Latest Weather Observations for Coonamble

IDN60801

Issued at 7:12 pm EST Sunday 19 April 2015 (issued every 30 minutes, with the page automatically refreshed every 10 minutes)

About weather observations | Map of weather stations | Latest weather observations for NSW | Other Formats
Station Details ID: 051161 Name: COONAMBLE AIRPORT AWS Lat: -30.98 Lon: 148.38 Height: 181.3 m
Data from the previous 72 hours. | See also: Recent months at Coonamble
Date/Time
EST
Temp
°C
App
Temp
°C
Dew
Point
Rel
Hum
%
Delta-T
°C
Wind Press
QNH
hPa
Press
MSL
hPa
Rain
since 9 am
mm
Dir
 
Spd
km/h
Gust
km/h
Spd
kts
Gust
kts
19/07:00pm 15.3 10.3 9.4 68 3.1 SSW 26 37 14 20 1022.7 1022.3 0.0
19/06:30pm 15.7 12.1 10.0 69 3.0 SSW 19 30 10 16 1022.7 1022.3 0.0
19/06:00pm 16.2 11.7 10.1 67 3.2 SSW 24 30 13 16 1022.5 1022.1 0.0
19/05:30pm 16.9 12.7 11.0 68 3.2 SSW 24 32 13 17 1022.2 1021.8 0.0
19/05:00pm 17.7 13.0 11.9 69 3.2 SSW 28 35 15 19 1021.9 1021.5 0.0
19/04:30pm 18.4 15.0 12.4 68 3.4 SSW 22 33 12 18 1021.3 1020.8 0.0
19/04:00pm 19.4 14.8 11.2 59 4.5 SSW 26 33 14 18 1021.0 1020.5 0.0
19/03:30pm 19.3 15.0 10.8 58 4.6 SSW 24 35 13 19 1021.0 1020.5 0.0
19/03:00pm 19.5 14.8 12.0 62 4.2 SSW 28 37 15 20 1020.9 1020.4 0.0
19/02:30pm 19.0 14.1 12.5 66 3.7 SSW 30 39 16 21 1020.6 1020.1 0.0
19/02:00pm 20.1 15.0 13.6 66 3.7 SSW 33 44 18 24 1020.3 1019.8 0.0
19/01:30pm 20.8 17.0 12.5 59 4.7 SSW 24 35 13 19 1020.7 1020.2 0.0
19/01:00pm 19.6 15.7 12.1 62 4.2 SSW 24 33 13 18 1020.7 1020.2 0.0
19/12:30pm 19.9 15.7 12.4 62 4.2 SSW 26 35 14 19 1020.8 1020.3 0.0
19/12:00pm 20.1 16.4 12.6 62 4.2 S 24 32 13 17 1021.1 1020.6 0.0
19/11:30am 19.6 15.5 12.6 64 4.0 S 26 35 14 19 1021.1 1020.6 0.0
19/11:00am 18.7 15.4 14.0 74 2.7 SSW 24 32 13 17 1021.5 1021.0 0.0
19/10:30am 17.8 14.5 14.9 83 1.7 SSW 26 33 14 18 1021.7 1021.2 0.0
19/10:00am 17.2 13.2 14.1 82 1.8 S 28 37 15 20 1021.6 1021.1 0.0
19/09:30am 16.4 13.6 14.2 87 1.3 S 22 30 12 16 1021.4 1020.9 0.0
19/09:00am 16.1 14.1 15.5 96 0.4 SSW 20 28 11 15 1021.2 1020.7 6.6
19/08:30am 16.0 15.0 15.7 98 0.2 SSW 15 19 8 10 1020.8 1020.3 6.6
19/08:00am 15.2 12.6 14.9 98 0.2 S 22 30 12 16 1020.5 1020.0 6.6
19/07:30am 15.4 12.5 15.1 98 0.2 S 24 30 13 16 1020.1 1019.6 6.6
19/07:00am 16.5 14.0 16.2 98 0.2 SSW 24 32 13 17 1019.2 1018.7 6.4
19/06:30am 17.1 19.1 16.9 99 0.1 NW 2 6 1 3 1018.8 1018.3 6.4
19/06:00am 16.9 17.8 16.7 99 0.1 NW 7 7 4 4 1018.4 1017.9 6.4
19/05:30am 16.9 18.0 16.7 99 0.1 NW 6 7 3 4 1018.2 1017.7 6.4
19/05:00am 17.0 18.2 16.8 99 0.1 WSW 6 9 3 5 1017.9 1017.4 6.4
19/04:30am 17.0 18.0 16.8 99 0.1 WSW 7 9 4 5 1017.8 1017.3 6.4
19/04:00am 16.7 17.6 16.5 99 0.1 WSW 7 11 4 6 1017.4 1016.9 6.4
19/03:30am 16.7 17.8 16.5 99 0.1 W 6 7 3 4 1017.2 1016.8 6.2
19/03:00am 16.4 17.1 16.2 99 0.1 WNW 7 9 4 5 1017.4 1016.9 6.2
19/02:30am 16.2 16.9 16.0 99 0.1 WNW 7 7 4 4 1017.2 1016.8 6.2
19/02:00am 16.8 17.7 16.6 99 0.1 NW 7 9 4 5 1017.8 1017.3 6.2
19/01:30am 16.3 16.6 16.1 99 0.1 NW 9 9 5 5 1018.1 1017.6 6.2
19/01:00am 17.0 19.3 16.8 99 0.1 CALM 0 0 0 0 1018.2 1017.7 6.2
19/12:30am 17.1 19.4 16.8 98 0.2 CALM 0 0 0 0 1018.3 1017.8 6.2
19/12:00am 17.8 19.3 17.6 99 0.1 WSW 6 7 3 4 1018.3 1017.8 6.2
 
Date/Time
EST
Temp
°C
App
Temp
°C
Dew
Point
Rel
Hum
%
Delta-T
°C
Wind Press
QNH
hPa
Press
MSL
hPa
Rain
since 9 am
mm
Dir
 
Spd
km/h
Gust
km/h
Spd
kts
Gust
kts
18/11:30pm 17.9 19.3 17.7 99 0.1 WNW 7 9 4 5 1018.3 1017.8 6.2
18/11:00pm 18.0 20.3 17.8 99 0.1 NE 2 7 1 4 1017.9 1017.4 6.2
18/10:30pm 18.2 19.7 18.0 99 0.1 N 7 9 4 5 1018.6 1018.1 5.8
18/10:00pm 18.2 19.9 18.0 99 0.1 W 6 7 3 4 1018.6 1018.1 5.8
18/09:30pm 18.2 20.6 18.0 99 0.1 WSW 2 11 1 6 1018.6 1018.1 5.8
18/09:00pm 18.2 19.7 18.0 99 0.1 ENE 7 11 4 6 1018.1 1017.6 5.8
18/08:30pm 18.3 19.1 18.1 99 0.1 ENE 11 15 6 8 1018.0 1017.5 5.6
18/08:00pm 18.5 19.7 18.2 98 0.2 NE 9 13 5 7 1018.3 1017.8 5.2
18/07:30pm 18.6 20.2 18.3 98 0.2 NE 7 13 4 7 1017.7 1017.2 4.0
18/07:00pm 18.9 19.9 18.6 98 0.2 SSW 11 15 6 8 1016.9 1016.4 2.4
18/06:30pm 18.7 18.5 18.4 98 0.2 SW 17 24 9 13 1016.7 1016.2 2.4
18/06:00pm 18.7 16.4 18.4 98 0.2 SW 28 39 15 21 1016.2 1015.7 2.2
18/05:30pm 18.9 14.9 18.6 98 0.2 WSW 37 50 20 27 1015.8 1015.3 1.0
18/05:10pm 21.1 19.5 17.5 80 2.2 NW 22 50 12 27 1015.2 1014.7 0.8
18/05:07pm 22.5 23.2 18.9 80 2.3 NNW 13 50 7 27 1015.5 1015.0 0.8
18/05:00pm 23.2 24.7 18.9 77 2.7 N 9 11 5 6 1014.5 1014.0 0.8
18/04:30pm 22.9 25.1 19.7 82 2.1 N 7 11 4 6 1014.5 1014.0 0.8
18/04:00pm 22.4 24.0 19.2 82 2.0 NNW 9 15 5 8 1014.6 1014.1 0.8
18/03:30pm 21.5 22.5 19.4 88 1.3 N 13 19 7 10 1014.8 1014.3 0.8
18/03:06pm 24.3 20.8 15.5 58 5.3 N 28 46 15 25 1015.0 1014.5 0.0
18/03:00pm 26.2 22.8 13.7 46 7.4 N 24 35 13 19 1014.9 1014.4 0.0
18/02:30pm 26.6 22.7 13.3 43 7.9 N 26 37 14 20 1015.1 1014.6 0.0
18/02:00pm 26.6 22.3 13.3 43 7.9 N 28 39 15 21 1015.4 1014.9 0.0
18/01:30pm 26.5 22.2 14.3 47 7.3 N 30 46 16 25 1015.6 1015.1 0.0
18/01:24pm 26.3 22.2 13.8 46 7.4 N 28 46 15 25 1015.8 1015.3 0.0
18/01:00pm 25.7 21.7 15.1 52 6.4 N 30 43 16 23 1016.2 1015.7 0.0
18/12:46pm 25.5 21.9 15.2 53 6.3 N 28 46 15 25 1016.5 1016.0 0.0
18/12:30pm 25.3 21.1 14.7 51 6.4 N 30 43 16 23 1016.7 1016.2 0.0
18/12:00pm 24.6 20.0 14.7 54 5.9 NNE 32 39 17 21 1017.2 1016.8 0.0
18/11:30am 25.2 21.8 15.8 56 5.8 NNE 28 43 15 23 1018.1 1017.6 0.0
18/11:00am 23.8 19.3 14.8 57 5.4 NNE 32 46 17 25 1018.5 1018.0 0.0
18/10:34am 23.7 20.0 14.9 57 5.3 NNE 28 46 15 25 1018.7 1018.2 0.0
18/10:30am 23.7 20.1 15.2 59 5.1 NNE 28 41 15 22 1018.9 1018.4 0.0
18/10:00am 23.1 18.8 14.4 58 5.2 NNE 30 50 16 27 1019.1 1018.6 0.0
18/09:59am 23.3 19.5 14.6 58 5.2 N 28 46 15 25 1019.1 1018.6 0.0
18/09:30am 22.4 18.3 14.8 62 4.5 NNE 30 44 16 24 1019.3 1018.8 0.0
18/09:11am 22.0 18.2 14.6 63 4.4 N 28 48 15 26 1019.7 1019.2 0.0
18/09:00am 21.8 17.9 14.4 63 4.4 NNE 28 39 15 21 1019.7 1019.2 0.0
18/08:30am 21.7 17.2 14.8 65 4.1 NNE 32 44 17 24 1019.1 1018.6 0.0
18/08:10am 21.2 17.0 14.6 66 3.9 NNE 30 48 16 26 1018.8 1018.3 0.0
18/08:00am 21.0 16.8 14.6 67 3.8 NNE 30 43 16 23 1018.9 1018.4 0.0
18/07:47am 20.8 17.0 14.7 68 3.6 NNE 28 46 15 25 1018.8 1018.3 0.0
18/07:30am 20.6 16.8 14.7 69 3.5 NNE 28 39 15 21 1018.9 1018.4 0.0
18/07:00am 20.6 17.4 15.2 71 3.2 NNE 26 37 14 20 1018.6 1018.1 0.0
18/06:30am 20.5 17.2 15.1 71 3.2 NNE 26 33 14 18 1018.4 1017.9 0.0
18/06:00am 20.6 18.0 14.9 70 3.4 NNE 22 32 12 17 1018.2 1017.7 0.0
18/05:30am 20.8 17.8 14.7 68 3.6 NNE 24 32 13 17 1017.9 1017.4 0.0
18/05:00am 20.4 17.9 14.1 67 3.7 NE 20 30 11 16 1017.9 1017.4 0.0
18/04:30am 20.5 17.8 13.5 64 4.0 NNE 20 26 11 14 1017.9 1017.4 0.0
18/04:00am 20.8 17.7 13.3 62 4.3 NNE 22 28 12 15 1017.5 1017.0 0.0
18/03:30am 21.1 17.8 12.8 59 4.8 NNE 22 32 12 17 1017.5 1017.0 0.0
18/03:00am 21.4 18.5 12.8 58 4.9 NNE 20 32 11 17 1017.6 1017.1 0.0
18/02:30am 21.0 18.0 12.7 59 4.7 NNE 20 32 11 17 1017.8 1017.3 0.0
18/02:00am 19.6 17.6 12.8 65 3.9 NE 15 20 8 11 1018.0 1017.5 0.0
18/01:30am 19.5 17.9 12.7 65 3.9 ENE 13 17 7 9 1018.5 1018.0 0.0
18/01:00am 19.3 18.2 13.2 68 3.5 NNE 11 19 6 10 1018.6 1018.1 0.0
18/12:30am 18.6 17.5 13.0 70 3.2 NE 11 13 6 7 1018.4 1017.9 0.0
18/12:00am 19.2 18.2 13.4 69 3.3 NE 11 15 6 8 1018.3 1017.8 0.0
 
Date/Time
EST
Temp
°C
App
Temp
°C
Dew
Point
Rel
Hum
%
Delta-T
°C
Wind Press
QNH
hPa
Press
MSL
hPa
Rain
since 9 am
mm
Dir
 
Spd
km/h
Gust
km/h
Spd
kts
Gust
kts
17/11:30pm 19.6 18.1 13.1 66 3.7 NE 13 17 7 9 1018.4 1017.9 0.0
17/11:00pm 19.9 18.6 13.6 67 3.6 NE 13 17 7 9 1018.6 1018.1 0.0
17/10:30pm 18.9 17.7 12.9 68 3.4 NE 11 13 6 7 1019.4 1018.9 0.0
17/10:00pm 19.9 18.7 12.7 63 4.1 ENE 11 13 6 7 1019.3 1018.8 0.0
17/09:30pm 20.6 19.2 12.3 59 4.7 ENE 11 13 6 7 1019.0 1018.5 0.0
17/09:00pm 21.1 19.7 12.3 57 5.0 ENE 11 13 6 7 1018.8 1018.3 0.0
17/08:30pm 21.5 20.0 11.8 54 5.5 ENE 11 13 6 7 1018.8 1018.3 0.0
17/08:00pm 21.7 20.5 11.7 53 5.6 NE 9 13 5 7 1018.6 1018.1 0.0
17/07:30pm 23.5 22.2 11.2 46 6.9 NE 9 13 5 7 1018.4 1017.9 0.0
17/07:00pm 25.0 23.3 11.2 42 7.8 NNE 11 15 6 8 1018.2 1017.7 0.0
17/06:30pm 26.0 23.9 11.0 39 8.5 NNE 13 17 7 9 1017.9 1017.4 0.0
17/06:00pm 26.4 24.1 10.5 37 9.0 NNE 13 19 7 10 1017.8 1017.3 0.0
17/05:30pm 27.5 25.3 10.7 35 9.6 NNE 13 19 7 10 1017.6 1017.1 0.0
17/05:00pm 28.4 25.9 11.0 34 10.0 NNE 15 20 8 11 1017.4 1016.9 0.0
17/04:30pm 28.4 25.5 11.0 34 10.0 NNE 17 28 9 15 1017.4 1016.9 0.0
17/04:00pm 29.2 25.8 11.3 33 10.4 NNE 20 30 11 16 1017.5 1017.0 0.0
17/03:30pm 29.1 25.5 10.7 32 10.6 NNE 20 28 11 15 1017.7 1017.2 0.0
17/03:00pm 29.4 25.9 11.0 32 10.6 N 20 28 11 15 1017.9 1017.4 0.0
17/02:30pm 29.4 26.6 11.5 33 10.4 NNE 17 28 9 15 1018.3 1017.8 0.0
17/02:00pm 28.5 25.5 12.0 36 9.6 NNE 19 26 10 14 1018.6 1018.1 0.0
17/01:30pm 28.3 25.1 11.8 36 9.6 N 20 30 11 16 1019.1 1018.6 0.0
17/01:00pm 29.0 26.1 12.8 36 9.6 N 20 28 11 15 1019.5 1019.0 0.0
17/12:30pm 28.6 25.6 12.1 36 9.7 N 19 28 10 15 1020.2 1019.7 0.0
17/12:00pm 28.0 25.0 12.4 38 9.1 N 20 30 11 16 1020.9 1020.4 0.0
17/11:30am 27.7 24.7 12.1 38 9.1 N 19 28 10 15 1021.4 1020.9 0.0
17/11:00am 26.6 23.0 11.9 40 8.5 N 22 30 12 16 1021.9 1021.5 0.0
17/10:30am 25.6 22.3 11.7 42 8.0 NNE 20 26 11 14 1022.1 1021.7 0.0
17/10:00am 25.1 22.6 12.3 45 7.4 NNE 17 24 9 13 1022.5 1022.1 0.0
17/09:30am 24.7 21.9 12.6 47 7.0 NNE 19 24 10 13 1022.9 1022.5 0.0
17/09:00am 22.9 20.5 12.5 52 6.0 NNE 17 22 9 12 1023.2 1022.7 0.0
17/08:30am 21.9 19.7 13.3 58 5.0 NE 17 24 9 13 1023.0 1022.6 0.0
17/08:00am 21.2 19.6 13.9 63 4.2 ENE 15 19 8 10 1022.8 1022.4 0.0
17/07:30am 19.4 18.3 14.2 72 3.0 E 13 17 7 9 1022.5 1022.1 0.0
17/07:00am 17.5 16.7 14.0 80 2.0 E 11 15 6 8 1022.2 1021.8 0.0
17/06:30am 16.5 15.5 13.4 82 1.8 ENE 11 13 6 7 1022.1 1021.7 0.0
17/06:00am 16.4 15.7 13.1 81 1.8 E 9 13 5 7 1022.0 1021.6 0.0
17/05:30am 16.8 15.8 13.3 80 2.0 E 11 13 6 7 1021.6 1021.1 0.0
17/05:00am 16.8 15.4 13.3 80 2.0 E 13 13 7 7 1021.3 1020.8 0.0
17/04:30am 17.6 16.9 13.3 76 2.4 E 9 13 5 7 1021.0 1020.5 0.0
17/04:00am 17.8 16.8 13.3 75 2.6 SE 11 13 6 7 1020.7 1020.2 0.0
17/03:30am 18.0 17.0 13.5 75 2.6 ESE 11 15 6 8 1020.5 1020.0 0.0
17/03:00am 18.2 17.2 13.3 73 2.8 ESE 11 13 6 7 1020.6 1020.1 0.0
17/02:30am 18.7 19.1 13.6 72 2.9 ESE 4 11 2 6 1020.8 1020.3 0.0
17/02:00am 18.8 17.5 13.6 72 3.0 SE 13 15 7 8 1021.3 1020.8 0.0
17/01:30am 18.4 17.0 13.5 73 2.8 SSE 13 17 7 9 1021.5 1021.0 0.0
17/01:00am 19.0 18.9 13.4 70 3.2 E 6 7 3 4 1021.6 1021.1 0.0
17/12:30am 20.0 20.8 12.7 63 4.1 CALM 0 9 0 5 1022.1 1021.7 0.0
17/12:00am 21.8 21.1 12.1 54 5.5 NNW 7 11 4 6 1022.0 1021.6 0.0
 
Date/Time
EST
Temp
°C
App
Temp
°C
Dew
Point
Rel
Hum
%
Delta-T
°C
Wind Press
QNH
hPa
Press
MSL
hPa
Rain
since 9 am
mm
Dir
 
Spd
km/h
Gust
km/h
Spd
kts
Gust
kts
16/11:30pm 22.8 20.8 11.5 49 6.4 NNE 13 19 7 10 1021.7 1021.2 0.0
16/11:00pm 23.9 21.6 11.6 46 7.0 NNE 15 20 8 11 1021.8 1021.4 0.0
16/10:30pm 23.7 21.4 11.7 47 6.8 NNE 15 20 8 11 1021.8 1021.4 0.0
16/10:00pm 23.4 21.0 11.5 47 6.7 NE 15 19 8 10 1021.8 1021.4 0.0
16/09:30pm 23.9 21.6 11.9 47 6.9 NE 15 17 8 9 1021.8 1021.4 0.0
16/09:00pm 21.3 19.8 11.9 55 5.3 NE 11 15 6 8 1021.8 1021.4 0.0
16/08:30pm 22.3 20.8 12.0 52 5.8 NE 11 13 6 7 1021.7 1021.2 0.0
16/08:00pm 22.4 21.3 12.1 52 5.8 ENE 9 13 5 7 1021.4 1020.9 0.0
16/07:30pm 23.1 21.6 11.8 49 6.4 NE 11 13 6 7 1021.1 1020.6 0.0

Other Formats:

Comma delimited format used in spreadsheet applications
http://www.bom.gov.au/fwo/IDN60801/IDN60801.95718.axf

JavaScript Object Notation format (JSON) in row-major order
http://www.bom.gov.au/fwo/IDN60801/IDN60801.95718.json